UAE352 OMDB-WSSS
Flight info
| Callsign | UAE352 |
|---|---|
| Flight time | N/A |
| Altitude | 39000 |
| Route | IVURO M677 LALDO B505 NADSO A777 VAXIM P307 PARAR N571 GURAS/N0485F410 N571 GUNIP M630 NIREN Y511 TOPOR A464 ARAMA DCT TEBUN TEBUN1A |
| Aircraft | A359/H-SDE2E3GHIJ3J4J5LM1ORWXY/LB1D1 |
Departure
| Time | 2026-04-25 08:10 |
|---|---|
| Airport | Dubai International Airport (OMDB) |
Arrival
| Time | N/A |
|---|---|
| Airport | Singapore Changi Airport (WSSS) |
| Time | Latitude | Longitude | Altitude | Speed | Heading |
|---|---|---|---|---|---|
| 2026-04-25 07:24 | 25.24919 | 55.36216 | 28 ft | 0 kts | 211° |
| 2026-04-25 07:54 | 25.24936 | 55.36228 | 27 ft | 4 kts | 211° |
| 2026-04-25 07:54 | 25.24959 | 55.36243 | 26 ft | 4 kts | 211° |
| 2026-04-25 07:55 | 25.24977 | 55.36255 | 25 ft | 4 kts | 217° |
| 2026-04-25 07:55 | 25.24993 | 55.36272 | 27 ft | 4 kts | 249° |
| 2026-04-25 07:55 | 25.24997 | 55.36291 | 26 ft | 4 kts | 293° |
| 2026-04-25 07:55 | 25.24985 | 55.36315 | 26 ft | 4 kts | 301° |
| 2026-04-25 07:56 | 25.24977 | 55.36329 | 26 ft | 3 kts | 301° |
| 2026-04-25 07:59 | 25.24978 | 55.36327 | 26 ft | 0 kts | 301° |
| 2026-04-25 08:00 | 25.25000 | 55.36289 | 25 ft | 12 kts | 301° |
| 2026-04-25 08:00 | 25.25060 | 55.36179 | 28 ft | 22 kts | 301° |
| 2026-04-25 08:00 | 25.25155 | 55.36009 | 28 ft | 28 kts | 301° |
| 2026-04-25 08:00 | 25.25255 | 55.35827 | 28 ft | 28 kts | 301° |
| 2026-04-25 08:01 | 25.25358 | 55.35642 | 28 ft | 28 kts | 301° |
| 2026-04-25 08:01 | 25.25460 | 55.35458 | 27 ft | 28 kts | 301° |
| 2026-04-25 08:01 | 25.25559 | 55.35279 | 27 ft | 15 kts | 301° |
| 2026-04-25 08:01 | 25.25602 | 55.35201 | 27 ft | 12 kts | 302° |
| 2026-04-25 08:02 | 25.25670 | 55.35150 | 27 ft | 12 kts | 1° |
| 2026-04-25 08:02 | 25.25740 | 55.35199 | 27 ft | 13 kts | 35° |
| 2026-04-25 08:02 | 25.25832 | 55.35262 | 27 ft | 19 kts | 31° |
| 2026-04-25 08:02 | 25.25956 | 55.35358 | 27 ft | 12 kts | 48° |
| 2026-04-25 08:03 | 25.25970 | 55.35378 | 27 ft | 0 kts | 56° |
| 2026-04-25 08:03 | 25.25973 | 55.35383 | 27 ft | 3 kts | 58° |
| 2026-04-25 08:03 | 25.25995 | 55.35454 | 27 ft | 17 kts | 82° |
| 2026-04-25 08:04 | 25.25945 | 55.35617 | 27 ft | 29 kts | 121° |
| 2026-04-25 08:04 | 25.25822 | 55.35839 | 28 ft | 38 kts | 121° |
| 2026-04-25 08:04 | 25.25711 | 55.36040 | 28 ft | 29 kts | 121° |
| 2026-04-25 08:04 | 25.25604 | 55.36232 | 28 ft | 30 kts | 121° |
| 2026-04-25 08:05 | 25.25494 | 55.36432 | 28 ft | 31 kts | 121° |
| 2026-04-25 08:05 | 25.25381 | 55.36634 | 28 ft | 31 kts | 122° |
| 2026-04-25 08:05 | 25.25268 | 55.36840 | 28 ft | 32 kts | 121° |
| 2026-04-25 08:05 | 25.25152 | 55.37047 | 29 ft | 31 kts | 122° |
| 2026-04-25 08:06 | 25.25040 | 55.37250 | 33 ft | 31 kts | 121° |
| 2026-04-25 08:06 | 25.24930 | 55.37448 | 37 ft | 30 kts | 121° |
| 2026-04-25 08:06 | 25.24825 | 55.37638 | 42 ft | 28 kts | 121° |
| 2026-04-25 08:06 | 25.24724 | 55.37819 | 46 ft | 28 kts | 121° |
| 2026-04-25 08:07 | 25.24625 | 55.37998 | 49 ft | 27 kts | 121° |
| 2026-04-25 08:07 | 25.24537 | 55.38157 | 53 ft | 12 kts | 121° |
| 2026-04-25 08:07 | 25.24515 | 55.38230 | 52 ft | 10 kts | 90° |
| 2026-04-25 08:07 | 25.24553 | 55.38279 | 51 ft | 9 kts | 36° |
| 2026-04-25 08:08 | 25.24613 | 55.38312 | 49 ft | 10 kts | 12° |
| 2026-04-25 08:08 | 25.24673 | 55.38274 | 51 ft | 11 kts | 309° |
| 2026-04-25 08:08 | 25.24695 | 55.38238 | 49 ft | 0 kts | 301° |
| 2026-04-25 08:09 | 25.24697 | 55.38234 | 50 ft | 6 kts | 301° |
| 2026-04-25 08:09 | 25.24819 | 55.38015 | 47 ft | 67 kts | 302° |
| 2026-04-25 08:09 | 25.25174 | 55.37373 | 34 ft | 127 kts | 301° |
| 2026-04-25 08:10 | 25.25731 | 55.36369 | 42 ft | 177 kts | 301° |
| 2026-04-25 08:10 | 25.26338 | 55.35255 | 899 ft | 156 kts | 300° |
| 2026-04-25 08:10 | 25.26892 | 55.34198 | 1398 ft | 165 kts | 302° |
| 2026-04-25 08:10 | 25.27530 | 55.33062 | 1722 ft | 184 kts | 304° |
| 2026-04-25 08:11 | 25.28272 | 55.31818 | 2098 ft | 205 kts | 304° |
| 2026-04-25 08:11 | 25.29123 | 55.30483 | 2626 ft | 218 kts | 312° |
| 2026-04-25 08:11 | 25.30406 | 55.29575 | 3291 ft | 225 kts | 346° |
| 2026-04-25 08:11 | 25.31967 | 55.29447 | 3984 ft | 227 kts | 0° |
| 2026-04-25 08:12 | 25.33557 | 55.29509 | 4643 ft | 231 kts | 1° |
| 2026-04-25 08:12 | 25.35180 | 55.29576 | 5321 ft | 235 kts | 0° |
| 2026-04-25 08:12 | 25.36838 | 55.29636 | 5996 ft | 239 kts | 360° |
| 2026-04-25 08:12 | 25.38521 | 55.29719 | 6598 ft | 245 kts | 4° |
| 2026-04-25 08:13 | 25.40143 | 55.30339 | 7105 ft | 254 kts | 33° |
| 2026-04-25 08:13 | 25.41453 | 55.31748 | 7432 ft | 274 kts | 50° |
| 2026-04-25 08:13 | 25.42663 | 55.33451 | 7844 ft | 287 kts | 51° |
| 2026-04-25 08:14 | 25.45166 | 55.36978 | 9112 ft | 298 kts | 51° |
| 2026-04-25 08:14 | 25.46469 | 55.38780 | 9810 ft | 302 kts | 51° |
| 2026-04-25 08:14 | 25.47802 | 55.40615 | 10369 ft | 311 kts | 51° |
| 2026-04-25 08:14 | 25.49195 | 55.42537 | 10692 ft | 328 kts | 51° |
| 2026-04-25 08:15 | 25.50628 | 55.44590 | 10995 ft | 344 kts | 52° |
| 2026-04-25 08:15 | 25.51937 | 55.46884 | 11274 ft | 360 kts | 66° |
| 2026-04-25 08:15 | 25.52442 | 55.48649 | 11446 ft | 369 kts | 81° |
| 2026-04-25 08:15 | 25.52260 | 55.52449 | 11908 ft | 380 kts | 102° |
| 2026-04-25 08:16 | 25.51631 | 55.55310 | 12424 ft | 385 kts | 106° |
| 2026-04-25 08:16 | 25.50885 | 55.58179 | 12995 ft | 388 kts | 108° |
| 2026-04-25 08:16 | 25.50070 | 55.61045 | 13545 ft | 391 kts | 109° |
| 2026-04-25 08:16 | 25.49210 | 55.63918 | 14051 ft | 395 kts | 110° |
| 2026-04-25 08:17 | 25.48623 | 55.65829 | 14366 ft | 397 kts | 110° |
| 2026-04-25 08:17 | 25.47720 | 55.68726 | 14843 ft | 400 kts | 110° |
| 2026-04-25 08:17 | 25.46801 | 55.71644 | 15339 ft | 403 kts | 110° |
| 2026-04-25 08:17 | 25.45871 | 55.74579 | 15823 ft | 405 kts | 111° |
| 2026-04-25 08:18 | 25.44933 | 55.77524 | 16320 ft | 408 kts | 111° |
| 2026-04-25 08:18 | 25.43984 | 55.80498 | 16802 ft | 411 kts | 111° |
| 2026-04-25 08:18 | 25.43028 | 55.83493 | 17274 ft | 413 kts | 111° |
| 2026-04-25 08:18 | 25.42066 | 55.86498 | 17745 ft | 416 kts | 111° |
| 2026-04-25 08:19 | 25.41094 | 55.89534 | 18195 ft | 419 kts | 111° |
| 2026-04-25 08:19 | 25.40113 | 55.92596 | 18599 ft | 422 kts | 111° |
| 2026-04-25 08:19 | 25.39138 | 55.95634 | 18947 ft | 427 kts | 111° |
| 2026-04-25 08:19 | 25.38141 | 55.98739 | 19304 ft | 431 kts | 111° |
| 2026-04-25 08:20 | 25.37132 | 56.01878 | 19686 ft | 435 kts | 111° |
| 2026-04-25 08:20 | 25.36114 | 56.05046 | 20086 ft | 438 kts | 111° |
| 2026-04-25 08:20 | 25.35092 | 56.08228 | 20488 ft | 442 kts | 111° |
| 2026-04-25 08:20 | 25.34056 | 56.11445 | 20889 ft | 446 kts | 111° |
| 2026-04-25 08:21 | 25.33067 | 56.14725 | 21282 ft | 451 kts | 106° |
| 2026-04-25 08:21 | 25.32457 | 56.18147 | 21687 ft | 456 kts | 99° |
| 2026-04-25 08:21 | 25.32069 | 56.21644 | 22089 ft | 460 kts | 96° |
| 2026-04-25 08:21 | 25.31788 | 56.25187 | 22486 ft | 464 kts | 95° |
| 2026-04-25 08:22 | 25.31546 | 56.28755 | 22890 ft | 468 kts | 95° |
| 2026-04-25 08:22 | 25.31301 | 56.32355 | 23280 ft | 472 kts | 95° |
| 2026-04-25 08:22 | 25.31043 | 56.35941 | 23632 ft | 475 kts | 95° |
| 2026-04-25 08:22 | 25.30762 | 56.39588 | 24005 ft | 478 kts | 95° |
| 2026-04-25 08:23 | 25.30523 | 56.43264 | 24378 ft | 481 kts | 93° |
| 2026-04-25 08:23 | 25.30398 | 56.46970 | 24769 ft | 484 kts | 91° |
| 2026-04-25 08:23 | 25.30326 | 56.50701 | 25179 ft | 487 kts | 91° |
| 2026-04-25 08:23 | 25.30262 | 56.54456 | 25579 ft | 490 kts | 91° |
| 2026-04-25 08:24 | 25.30027 | 56.58216 | 25971 ft | 493 kts | 98° |
| 2026-04-25 08:24 | 25.29274 | 56.61929 | 26369 ft | 494 kts | 109° |
| 2026-04-25 08:24 | 25.28136 | 56.65513 | 26772 ft | 497 kts | 112° |
| 2026-04-25 08:24 | 25.26855 | 56.69083 | 27173 ft | 500 kts | 114° |
| 2026-04-25 08:25 | 25.25508 | 56.72621 | 27562 ft | 503 kts | 114° |
| 2026-04-25 08:25 | 25.24123 | 56.76180 | 27968 ft | 505 kts | 115° |
| 2026-04-25 08:25 | 25.22728 | 56.79760 | 28365 ft | 508 kts | 114° |
| 2026-04-25 08:25 | 25.21333 | 56.83358 | 28765 ft | 511 kts | 114° |
| 2026-04-25 08:26 | 25.19938 | 56.86986 | 29143 ft | 514 kts | 114° |
| 2026-04-25 08:26 | 25.18544 | 56.90631 | 29486 ft | 517 kts | 114° |
| 2026-04-25 08:26 | 25.17163 | 56.94253 | 29836 ft | 520 kts | 114° |
| 2026-04-25 08:26 | 25.15755 | 56.97951 | 30145 ft | 522 kts | 114° |
| 2026-04-25 08:27 | 25.14343 | 57.01657 | 30423 ft | 525 kts | 114° |
| 2026-04-25 08:27 | 25.12927 | 57.05371 | 30732 ft | 527 kts | 114° |
| 2026-04-25 08:27 | 25.11501 | 57.09107 | 31034 ft | 528 kts | 114° |
| 2026-04-25 08:27 | 25.10071 | 57.12848 | 31318 ft | 530 kts | 114° |
| 2026-04-25 08:28 | 25.08635 | 57.16602 | 31685 ft | 529 kts | 114° |
| 2026-04-25 08:28 | 25.07207 | 57.20330 | 32146 ft | 527 kts | 114° |
| 2026-04-25 08:28 | 25.05780 | 57.24053 | 32584 ft | 525 kts | 114° |
| 2026-04-25 08:28 | 25.04361 | 57.27753 | 33002 ft | 523 kts | 114° |
| 2026-04-25 08:29 | 25.02941 | 57.31449 | 33428 ft | 522 kts | 114° |
| 2026-04-25 08:29 | 25.01544 | 57.35082 | 33840 ft | 520 kts | 114° |
| 2026-04-25 08:29 | 25.00134 | 57.38749 | 34160 ft | 519 kts | 114° |
| 2026-04-25 08:29 | 24.98718 | 57.42422 | 34381 ft | 521 kts | 114° |
| 2026-04-25 08:30 | 24.97299 | 57.46103 | 34603 ft | 522 kts | 114° |
| 2026-04-25 08:30 | 24.95873 | 57.49800 | 34844 ft | 523 kts | 114° |
| 2026-04-25 08:30 | 24.94446 | 57.53493 | 35082 ft | 524 kts | 114° |
| 2026-04-25 08:30 | 24.93015 | 57.57196 | 35322 ft | 525 kts | 114° |
| 2026-04-25 08:31 | 24.91583 | 57.60899 | 35534 ft | 526 kts | 114° |
| 2026-04-25 08:31 | 24.90147 | 57.64608 | 35771 ft | 526 kts | 114° |
| 2026-04-25 08:31 | 24.88728 | 57.68272 | 35999 ft | 527 kts | 114° |
| 2026-04-25 08:31 | 24.87286 | 57.71991 | 36198 ft | 528 kts | 114° |
| 2026-04-25 08:32 | 24.85845 | 57.75703 | 36426 ft | 528 kts | 114° |
| 2026-04-25 08:32 | 24.84395 | 57.79437 | 36655 ft | 529 kts | 114° |
| 2026-04-25 08:32 | 24.82947 | 57.83161 | 36875 ft | 529 kts | 114° |
| 2026-04-25 08:32 | 24.81441 | 57.86867 | 37097 ft | 529 kts | 116° |
| 2026-04-25 08:33 | 24.79853 | 57.90519 | 37320 ft | 529 kts | 117° |
| 2026-04-25 08:33 | 24.78249 | 57.94108 | 37529 ft | 529 kts | 117° |
| 2026-04-25 08:33 | 24.76620 | 57.97734 | 37735 ft | 529 kts | 117° |
| 2026-04-25 08:33 | 24.75000 | 58.01362 | 37933 ft | 530 kts | 117° |